Snover, Michigan
Current Conditions -  °F | °C
As of 7:15 PM on Wednesday 28 Jan 2015 (Local Time) from KBAX Reporting Station
Broken Clouds Broken Clouds  
Wind Chill: 17°   Ceiling: 12000
Heat Index: 25°   Visibility: 10mi
Dew Point: 11°   Wind: 7mph
Humidity: 56%   Direction: 170°S
Pressure: 30.2"   Gusts: NA
Location:  43.46°N, 82.97°W
Report Text: KBAX 290015Z AUTO 17006KT 10SM BKN120 M04/M11 A3020 RMK AO2 T10381114
Loading
Personal Weather Stations






























Interactive Weather Map New forecast layout! Learn more

10-Day Weather Forecast

Advertisements
Track Severe Weather on mobile